Time;durP1;ratioP1;P1;durP2;ratioP2;P2;SDS_P1;SDS_P2;PMS_P1;PMS_P2;Temp;Humidity;BMP_temperature;BMP_pressure;BME280_temperature;BME280_humidity;BME280_pressure;Samples;Min_cycle;Max_cycle;Signal;HPM_P1;HPM_P2
2022/07/29 00:01:49;;;;;;;3.20;1.27;;;22.20;44.10;;;;;;4980236;28;20050;-43
2022/07/29 00:04:16;;;;;;;3.00;1.20;;;22.20;44.10;;;;;;4980902;28;20065;-43
2022/07/29 00:06:43;;;;;;;4.88;1.27;;;22.20;44.10;;;;;;4983892;28;20054;-43
2022/07/29 00:09:10;;;;;;;1.98;1.10;;;22.20;44.00;;;;;;4980090;28;20510;-45
2022/07/29 00:11:38;;;;;;;4.75;1.48;;;22.10;43.90;;;;;;4977607;28;20501;-44
2022/07/29 00:14:07;;;;;;;2.50;1.30;;;22.10;44.00;;;;;;4978756;28;21700;-43
2022/07/29 00:16:34;;;;;;;2.53;1.35;;;22.10;44.10;;;;;;4980730;28;20515;-44
2022/07/29 00:19:01;;;;;;;3.83;1.30;;;22.10;44.20;;;;;;4979587;28;20051;-43
2022/07/29 00:21:28;;;;;;;2.53;1.10;;;22.10;44.30;;;;;;4980190;28;20057;-43
2022/07/29 00:23:55;;;;;;;4.93;1.30;;;22.00;44.30;;;;;;4980876;28;20050;-42
2022/07/29 00:26:23;;;;;;;4.10;1.50;;;22.00;44.30;;;;;;4981248;28;20058;-44
2022/07/29 00:28:50;;;;;;;2.08;1.08;;;22.00;44.30;;;;;;4979536;28;20050;-44
2022/07/29 00:31:18;;;;;;;2.78;1.40;;;22.00;44.10;;;;;;4978720;28;20046;-45
2022/07/29 00:33:45;;;;;;;2.67;1.25;;;22.00;44.20;;;;;;4979746;28;20054;-46
2022/07/29 00:36:12;;;;;;;2.00;1.35;;;22.00;44.20;;;;;;4982524;28;20057;-43
2022/07/29 00:38:41;;;;;;;2.38;1.40;;;22.00;44.20;;;;;;4984780;28;20058;-42
2022/07/29 00:41:08;;;;;;;2.55;1.10;;;22.00;44.30;;;;;;4981604;28;20051;-46
2022/07/29 00:43:35;;;;;;;3.10;1.20;;;22.00;44.20;;;;;;4983604;28;20050;-45
2022/07/29 00:46:02;;;;;;;2.95;1.40;;;22.00;44.20;;;;;;4982558;28;20073;-43
2022/07/29 00:48:31;;;;;;;3.10;1.27;;;22.00;44.20;;;;;;4984619;28;20061;-42
2022/07/29 00:50:59;;;;;;;1.83;1.20;;;22.00;44.30;;;;;;4982362;28;20525;-43
2022/07/29 00:53:27;;;;;;;5.00;1.25;;;22.00;44.30;;;;;;4986143;28;20058;-45
2022/07/29 00:55:55;;;;;;;3.60;1.58;;;22.00;44.30;;;;;;4985213;28;20057;-43
2022/07/29 00:58:22;;;;;;;2.60;1.40;;;22.00;44.30;;;;;;4982686;28;20061;-43
2022/07/29 01:00:50;;;;;;;3.47;1.13;;;22.00;44.40;;;;;;4983223;28;20061;-42
2022/07/29 01:03:17;;;;;;;2.92;1.13;;;22.00;44.30;;;;;;4985733;28;20054;-46
2022/07/29 01:05:47;;;;;;;3.95;1.50;;;22.00;44.30;;;;;;4984800;28;20093;-42
2022/07/29 01:08:16;;;;;;;4.35;1.88;;;22.00;44.50;;;;;;4983298;28;20069;-48
2022/07/29 01:10:47;;;;;;;4.30;1.50;;;22.00;44.70;;;;;;4983046;28;20057;-46
2022/07/29 01:13:16;;;;;;;3.08;1.40;;;22.00;44.80;;;;;;4984346;28;20054;-43
2022/07/29 01:15:46;;;;;;;3.63;1.30;;;22.00;44.80;;;;;;4986551;28;20414;-43
2022/07/29 01:18:19;;;;;;;2.78;1.52;;;22.00;44.90;;;;;;4986319;28;20525;-42
2022/07/29 01:21:05;;;;;;;2.45;1.20;;;22.00;45.00;;;;;;4983710;28;20051;-44
2022/07/29 01:23:56;;;;;;;4.18;1.33;;;22.00;45.40;;;;;;4985417;28;20065;-44
2022/07/29 01:26:35;;;;;;;3.80;1.25;;;21.90;44.70;;;;;;4985802;28;20144;-42
2022/07/29 01:29:12;;;;;;;4.65;1.52;;;22.00;44.80;;;;;;4983679;28;20066;-43
2022/07/29 01:31:45;;;;;;;5.28;1.35;;;21.90;44.80;;;;;;4982882;28;20050;-42
2022/07/29 01:34:24;;;;;;;2.05;1.30;;;21.90;44.80;;;;;;4986165;28;20058;-44
2022/07/29 01:36:56;;;;;;;5.80;1.48;;;21.90;44.90;;;;;;4984925;28;20065;-42
2022/07/29 01:39:29;;;;;;;2.08;1.33;;;21.90;44.80;;;;;;4979732;28;20490;-44
2022/07/29 01:42:02;;;;;;;5.70;1.42;;;21.80;44.80;;;;;;4982638;28;20402;-43
2022/07/29 01:44:36;;;;;;;2.28;1.38;;;21.80;44.70;;;;;;4983549;28;20058;-43
2022/07/29 01:47:10;;;;;;;;;;;21.80;44.60;;;;;;4986252;28;20051;-42
2022/07/29 01:49:43;;;;;;;1.23;1.13;;;21.80;44.40;;;;;;4984842;28;19941;-43
2022/07/29 01:52:19;;;;;;;2.97;1.40;;;21.80;44.60;;;;;;4984739;28;20495;-42
2022/07/29 01:54:53;;;;;;;3.33;1.60;;;21.70;44.50;;;;;;4984879;28;20062;-43
2022/07/29 01:57:25;;;;;;;4.67;1.83;;;21.60;44.50;;;;;;4983900;28;20058;-45
2022/07/29 01:59:55;;;;;;;2.33;1.15;;;21.60;44.50;;;;;;4981661;28;20521;-43
2022/07/29 02:02:23;;;;;;;2.45;1.23;;;21.60;44.30;;;;;;4984624;28;20050;-45
2022/07/29 02:04:52;;;;;;;2.55;1.50;;;21.60;44.20;;;;;;4982428;28;20061;-43
2022/07/29 02:07:22;;;;;;;2.78;1.30;;;21.50;44.00;;;;;;4984347;28;20399;-43
2022/07/29 02:09:51;;;;;;;5.40;2.08;;;21.50;44.00;;;;;;4981905;28;20054;-44
2022/07/29 02:12:20;;;;;;;4.00;1.55;;;21.50;44.30;;;;;;4985979;28;20054;-42
2022/07/29 02:14:52;;;;;;;2.13;1.35;;;21.50;44.50;;;;;;4984420;28;20528;-44
2022/07/29 02:17:25;;;;;;;4.85;1.58;;;21.50;44.40;;;;;;4984141;28;20058;-42
2022/07/29 02:19:57;;;;;;;3.28;1.38;;;21.50;44.30;;;;;;4982091;28;20065;-43
2022/07/29 02:22:27;;;;;;;2.83;1.50;;;21.50;44.30;;;;;;4984853;28;20054;-43
2022/07/29 02:24:56;;;;;;;2.13;1.13;;;21.40;44.20;;;;;;4981609;28;21017;-44
2022/07/29 02:27:26;;;;;;;3.40;1.27;;;21.40;44.20;;;;;;4984084;28;20054;-45
2022/07/29 02:29:55;;;;;;;4.35;1.50;;;21.40;44.30;;;;;;4982768;28;20062;-43
2022/07/29 02:32:27;;;;;;;3.53;1.33;;;21.40;44.20;;;;;;4982761;28;20075;-44
2022/07/29 02:34:55;;;;;;;4.20;1.73;;;21.40;44.20;;;;;;4984778;28;20062;-41
2022/07/29 02:37:23;;;;;;;1.73;1.20;;;21.30;44.10;;;;;;4985234;28;20058;-43
2022/07/29 02:39:53;;;;;;;3.83;1.33;;;21.30;44.50;;;;;;4981934;28;20573;-46
2022/07/29 02:42:23;;;;;;;2.35;1.15;;;21.30;44.00;;;;;;4984711;28;20057;-41
2022/07/29 02:44:51;;;;;;;3.28;1.02;;;21.30;44.00;;;;;;4983243;28;20054;-42
2022/07/29 02:47:22;;;;;;;3.45;1.52;;;21.20;43.90;;;;;;4984763;28;20061;-42
2022/07/29 02:49:55;;;;;;;3.03;1.30;;;21.20;43.90;;;;;;4983135;28;20502;-44
2022/07/29 02:52:27;;;;;;;2.92;1.30;;;21.20;43.80;;;;;;4983549;28;20057;-42
2022/07/29 02:54:57;;;;;;;3.05;1.27;;;21.20;43.90;;;;;;4984292;28;20054;-43
2022/07/29 02:57:33;;;;;;;4.07;1.42;;;21.10;43.90;;;;;;4981274;28;20062;-47
2022/07/29 03:00:05;;;;;;;2.42;1.40;;;21.10;44.00;;;;;;4982115;28;20438;-45
2022/07/29 03:02:36;;;;;;;4.65;1.45;;;21.10;43.90;;;;;;4984826;28;20494;-44
2022/07/29 03:05:07;;;;;;;2.28;1.15;;;21.10;43.90;;;;;;4980189;28;20065;-42
2022/07/29 03:07:35;;;;;;;5.78;1.40;;;21.10;43.90;;;;;;4981574;28;20411;-43
2022/07/29 03:10:05;;;;;;;2.50;1.05;;;21.10;43.90;;;;;;4979556;28;20379;-42
2022/07/29 03:12:32;;;;;;;1.83;1.10;;;21.10;43.80;;;;;;4980272;28;20501;-44
2022/07/29 03:15:01;;;;;;;1.73;1.00;;;21.10;43.70;;;;;;4978661;28;20414;-43
2022/07/29 03:17:29;;;;;;;4.40;1.10;;;21.10;43.90;;;;;;4984029;28;20062;-43
2022/07/29 03:19:57;;;;;;;2.15;1.30;;;21.00;43.90;;;;;;4982874;28;20494;-48
2022/07/29 03:22:25;;;;;;;3.92;1.40;;;21.00;44.00;;;;;;4982580;28;20046;-45
2022/07/29 03:24:53;;;;;;;7.65;3.45;;;21.00;44.10;;;;;;4980286;28;20070;-42
2022/07/29 03:27:20;;;;;;;3.15;1.85;;;21.00;44.20;;;;;;4983283;28;20486;-42
2022/07/29 03:29:47;;;;;;;4.60;1.60;;;21.00;44.30;;;;;;4980922;28;20050;-41
2022/07/29 03:32:14;;;;;;;2.15;1.13;;;21.00;44.30;;;;;;4984957;28;20051;-42
2022/07/29 03:34:41;;;;;;;2.38;1.30;;;20.90;44.40;;;;;;4984629;28;20054;-44
2022/07/29 03:37:09;;;;;;;3.90;1.50;;;20.90;44.40;;;;;;4982419;28;20061;-44
2022/07/29 03:39:41;;;;;;;1.95;1.45;;;20.90;44.40;;;;;;4981271;28;20561;-45
2022/07/29 03:42:12;;;;;;;3.92;1.48;;;20.80;44.30;;;;;;4979375;28;20050;-42
2022/07/29 03:44:42;;;;;;;3.63;1.70;;;20.80;44.30;;;;;;4982857;28;20490;-48
2022/07/29 03:47:11;;;;;;;3.72;1.55;;;20.80;44.30;;;;;;4982947;28;20057;-47
2022/07/29 03:49:41;;;;;;;2.72;1.42;;;20.80;44.50;;;;;;4980717;28;20414;-43
2022/07/29 03:52:08;;;;;;;4.88;1.55;;;20.70;44.50;;;;;;4980952;28;21225;-45
2022/07/29 03:54:37;;;;;;;10.40;2.30;;;20.70;44.10;;;;;;4980868;28;20053;-44
2022/07/29 03:57:07;;;;;;;3.45;1.65;;;20.60;43.80;;;;;;4983191;28;20054;-45
2022/07/29 03:59:35;;;;;;;5.25;1.50;;;20.60;43.70;;;;;;4981110;28;20054;-45
2022/07/29 04:02:04;;;;;;;7.93;1.17;;;20.50;44.10;;;;;;4982345;28;20050;-44
2022/07/29 04:04:34;;;;;;;2.17;1.17;;;20.50;44.40;;;;;;4982804;28;20065;-45
2022/07/29 04:07:01;;;;;;;2.55;1.13;;;20.40;44.60;;;;;;4983932;28;20054;-42
2022/07/29 04:09:29;;;;;;;3.00;1.20;;;20.40;44.70;;;;;;4981641;28;21114;-43
2022/07/29 04:11:57;;;;;;;7.80;1.52;;;20.40;44.80;;;;;;4981770;28;20062;-42
2022/07/29 04:14:24;;;;;;;4.13;1.73;;;20.40;44.80;;;;;;4982007;28;20070;-42
2022/07/29 04:16:52;;;;;;;3.00;1.42;;;20.40;44.40;;;;;;4980055;28;20058;-42
2022/07/29 04:19:19;;;;;;;2.70;1.30;;;20.40;44.40;;;;;;4981265;28;20057;-42
2022/07/29 04:21:47;;;;;;;2.28;1.05;;;20.40;44.30;;;;;;4982453;28;20438;-43
2022/07/29 04:24:14;;;;;;;3.15;1.52;;;20.40;44.40;;;;;;4981819;28;20065;-45
2022/07/29 04:26:41;;;;;;;3.88;1.30;;;20.40;44.60;;;;;;4983512;28;20069;-44
2022/07/29 04:29:11;;;;;;;2.20;1.20;;;20.40;44.90;;;;;;4982080;28;20065;-43
2022/07/29 04:31:39;;;;;;;4.88;1.15;;;20.40;45.20;;;;;;4982191;28;20058;-43
2022/07/29 04:34:06;;;;;;;4.47;2.08;;;20.40;45.10;;;;;;4980667;28;20077;-44
2022/07/29 04:36:33;;;;;;;5.30;1.92;;;20.40;45.00;;;;;;4982784;28;20054;-44
2022/07/29 04:39:00;;;;;;;4.63;1.88;;;20.40;44.90;;;;;;4981953;28;20499;-44
2022/07/29 04:41:28;;;;;;;4.50;1.50;;;20.40;45.10;;;;;;4986314;28;20057;-42
2022/07/29 04:43:55;;;;;;;2.92;1.58;;;20.40;45.50;;;;;;4996495;28;20069;-43
2022/07/29 04:46:24;;;;;;;4.30;1.77;;;20.30;45.40;;;;;;4999705;28;20508;-42
2022/07/29 04:48:51;;;;;;;3.92;1.30;;;20.30;46.00;;;;;;5002727;28;20066;-43
2022/07/29 04:51:18;;;;;;;7.55;1.70;;;20.30;45.80;;;;;;4991031;28;20061;-44
2022/07/29 04:53:45;;;;;;;7.80;2.05;;;20.30;46.00;;;;;;5000309;28;20050;-42
2022/07/29 04:56:12;;;;;;;1.70;1.48;;;20.30;46.30;;;;;;5001388;28;20057;-44
2022/07/29 04:58:40;;;;;;;7.75;2.28;;;20.20;46.00;;;;;;4995160;28;20058;-44
2022/07/29 05:01:07;;;;;;;3.83;1.35;;;20.30;46.30;;;;;;4998284;28;20065;-44
2022/07/29 05:03:36;;;;;;;3.35;1.50;;;20.20;46.00;;;;;;4998434;28;20528;-42
2022/07/29 05:06:04;;;;;;;4.72;1.88;;;20.20;45.90;;;;;;4996076;28;20057;-45
2022/07/29 05:08:31;;;;;;;2.90;1.70;;;20.30;45.90;;;;;;5001404;28;20058;-44
2022/07/29 05:10:58;;;;;;;2.85;1.30;;;20.30;46.00;;;;;;4996363;28;20061;-41
2022/07/29 05:13:25;;;;;;;3.70;1.58;;;20.30;46.10;;;;;;4999233;28;20060;-42
2022/07/29 05:15:52;;;;;;;4.05;1.38;;;20.30;46.30;;;;;;5001178;28;20053;-42
2022/07/29 05:18:20;;;;;;;3.90;1.73;;;20.30;46.50;;;;;;5001352;28;20426;-43
2022/07/29 05:20:48;;;;;;;6.35;1.85;;;20.30;46.70;;;;;;4997224;28;20061;-43
2022/07/29 05:23:15;;;;;;;6.80;2.20;;;20.40;46.80;;;;;;5005838;28;20042;-43
2022/07/29 05:25:43;;;;;;;8.20;1.80;;;20.40;46.70;;;;;;4999614;28;20061;-44
2022/07/29 05:28:10;;;;;;;2.92;1.38;;;20.50;46.70;;;;;;5002136;28;20494;-42
2022/07/29 05:30:37;;;;;;;4.57;1.60;;;20.50;46.70;;;;;;5003060;28;20065;-42
2022/07/29 05:33:05;;;;;;;2.10;1.20;;;20.50;46.90;;;;;;5005758;28;20054;-42
2022/07/29 05:35:32;;;;;;;2.70;1.60;;;20.60;47.00;;;;;;5003978;28;20049;-44
2022/07/29 05:38:00;;;;;;;6.05;1.70;;;20.60;47.40;;;;;;5005271;28;20057;-42
2022/07/29 05:40:27;;;;;;;5.68;1.50;;;20.60;48.00;;;;;;5002652;28;20057;-44
2022/07/29 05:42:55;;;;;;;3.65;1.38;;;20.70;48.00;;;;;;5001840;28;20487;-44
2022/07/29 05:45:23;;;;;;;2.47;1.50;;;20.80;48.00;;;;;;5003834;28;20068;-44
2022/07/29 05:47:50;;;;;;;3.83;1.60;;;20.80;48.20;;;;;;5002754;28;20053;-44
2022/07/29 05:50:17;;;;;;;3.22;1.50;;;20.80;48.40;;;;;;5000623;28;20053;-44
2022/07/29 05:52:45;;;;;;;6.50;1.50;;;20.90;48.70;;;;;;5004168;28;20077;-43
2022/07/29 05:55:13;;;;;;;7.93;1.75;;;21.00;48.90;;;;;;5005502;28;20730;-43
2022/07/29 05:57:40;;;;;;;7.60;1.85;;;21.00;48.60;;;;;;5001234;28;20451;-42
2022/07/29 06:00:09;;;;;;;4.35;1.77;;;21.10;48.40;;;;;;5003431;28;20513;-42
2022/07/29 06:02:36;;;;;;;5.28;1.90;;;21.10;48.20;;;;;;5001238;28;20050;-45
2022/07/29 06:05:04;;;;;;;3.97;2.00;;;21.10;48.20;;;;;;5002287;28;20058;-41
2022/07/29 06:07:32;;;;;;;3.78;1.55;;;21.10;48.00;;;;;;5004963;28;20054;-44
2022/07/29 06:09:59;;;;;;;4.82;2.03;;;21.20;48.10;;;;;;5003858;28;20060;-44
2022/07/29 06:12:28;;;;;;;3.72;1.65;;;21.20;48.00;;;;;;5003537;28;20057;-46
2022/07/29 06:14:55;;;;;;;9.50;1.83;;;21.30;48.10;;;;;;5002009;28;20065;-41
2022/07/29 06:17:22;;;;;;;4.80;2.30;;;21.30;48.10;;;;;;5004373;28;20057;-42
2022/07/29 06:19:49;;;;;;;5.55;2.25;;;21.40;48.20;;;;;;5000201;28;21213;-42
2022/07/29 06:22:17;;;;;;;6.93;1.88;;;21.40;48.10;;;;;;5003189;28;20390;-42
2022/07/29 06:24:44;;;;;;;6.05;2.30;;;21.40;47.90;;;;;;5001554;28;20054;-43
2022/07/29 06:30:41;;;;;;;7.82;3.05;;;21.50;48.20;;;;;;5009119;28;20045;-45
2022/07/29 06:33:55;;;;;;;5.90;2.28;;;21.50;47.80;;;;;;5002714;28;20053;-42
2022/07/29 06:43:07;;;;;;;6.18;2.20;;;21.50;48.20;;;;;;5005680;28;20064;-43
2022/07/29 06:45:34;;;;;;;8.88;2.50;;;21.60;48.50;;;;;;5002580;28;20054;-44
2022/07/29 06:48:03;;;;;;;11.27;2.50;;;21.60;48.20;;;;;;5003001;28;20410;-43
2022/07/29 06:50:31;;;;;;;5.88;2.10;;;21.60;48.00;;;;;;5001414;28;20050;-41
2022/07/29 06:52:58;;;;;;;8.77;2.28;;;21.60;47.90;;;;;;5000740;28;20498;-42
2022/07/29 06:55:25;;;;;;;5.47;2.00;;;21.60;47.90;;;;;;5004653;28;20058;-44
2022/07/29 06:57:53;;;;;;;9.65;2.60;;;21.60;48.00;;;;;;5001069;28;20497;-45
2022/07/29 07:00:21;;;;;;;8.95;2.35;;;21.70;47.80;;;;;;5000539;28;20054;-45
2022/07/29 07:02:48;;;;;;;4.18;1.77;;;21.70;47.50;;;;;;5002434;28;20514;-43
2022/07/29 07:05:16;;;;;;;5.28;1.80;;;21.80;47.30;;;;;;5001723;28;20065;-43
2022/07/29 07:07:44;;;;;;;5.05;2.33;;;21.80;47.40;;;;;;5003907;28;20421;-43
2022/07/29 07:10:11;;;;;;;9.55;2.50;;;21.90;47.20;;;;;;5001417;28;20506;-42
2022/07/29 07:12:38;;;;;;;9.60;2.05;;;22.00;46.90;;;;;;5002597;28;20072;-43
2022/07/29 07:15:07;;;;;;;6.40;2.08;;;22.00;45.70;;;;;;5000790;28;20058;-43
2022/07/29 07:17:34;;;;;;;9.05;2.30;;;22.00;45.80;;;;;;5002636;28;20482;-42
2022/07/29 07:20:01;;;;;;;6.63;2.35;;;22.00;46.10;;;;;;5000219;28;20513;-42
2022/07/29 07:22:30;;;;;;;6.20;2.20;;;22.10;45.70;;;;;;5002009;28;20050;-44
2022/07/29 07:24:57;;;;;;;9.30;2.40;;;22.20;46.00;;;;;;5000937;28;20057;-43
2022/07/29 07:27:24;;;;;;;6.90;1.88;;;22.10;45.70;;;;;;5002388;28;20057;-42
2022/07/29 07:29:51;;;;;;;10.90;2.47;;;22.20;45.20;;;;;;4998629;28;20065;-46
2022/07/29 07:32:19;;;;;;;6.80;2.20;;;22.20;45.00;;;;;;5002901;28;20064;-43
2022/07/29 07:34:46;;;;;;;6.65;1.80;;;22.30;45.20;;;;;;5002889;28;20422;-42
2022/07/29 07:37:14;;;;;;;8.00;2.60;;;22.30;44.80;;;;;;5001077;28;20429;-41
2022/07/29 07:39:42;;;;;;;13.35;1.85;;;22.20;44.60;;;;;;5000178;28;20065;-46
2022/07/29 07:42:12;;;;;;;6.00;2.00;;;22.30;45.10;;;;;;5000505;28;20053;-44
2022/07/29 07:44:39;;;;;;;8.55;2.20;;;22.30;45.60;;;;;;4997408;28;20057;-43
2022/07/29 07:47:07;;;;;;;5.68;1.85;;;22.30;45.30;;;;;;5001415;28;20505;-43
2022/07/29 07:49:34;;;;;;;7.40;1.63;;;22.40;45.20;;;;;;5001850;28;20064;-44
2022/07/29 07:52:01;;;;;;;9.98;2.05;;;22.40;45.10;;;;;;5002947;28;20069;-44
2022/07/29 07:54:28;;;;;;;6.55;2.15;;;22.50;45.00;;;;;;5000085;28;20064;-44
2022/07/29 07:56:57;;;;;;;8.43;2.33;;;22.50;44.30;;;;;;4999798;28;20877;-47
2022/07/29 07:59:24;;;;;;;9.40;2.28;;;22.50;43.80;;;;;;5000589;28;20049;-44
2022/07/29 08:01:52;;;;;;;4.22;1.50;;;22.60;44.00;;;;;;5002354;28;20061;-43
2022/07/29 08:04:19;;;;;;;8.43;2.00;;;22.60;44.20;;;;;;5002555;28;20058;-45
2022/07/29 08:06:46;;;;;;;8.95;2.25;;;22.70;43.80;;;;;;5000681;28;20117;-42
2022/07/29 08:09:13;;;;;;;7.70;2.05;;;22.70;43.90;;;;;;4993403;28;20054;-43
2022/07/29 08:11:40;;;;;;;5.53;1.70;;;22.80;43.80;;;;;;4998400;28;20069;-45
2022/07/29 08:14:09;;;;;;;6.45;1.88;;;22.80;43.40;;;;;;4996982;28;20833;-43
2022/07/29 08:16:36;;;;;;;7.63;2.05;;;22.90;43.60;;;;;;4994761;28;20497;-42
2022/07/29 08:19:03;;;;;;;5.05;1.92;;;22.90;44.20;;;;;;4987227;28;20054;-42
2022/07/29 08:21:30;;;;;;;4.63;1.83;;;23.00;44.20;;;;;;4977180;28;20065;-43
2022/07/29 08:26:39;;;;;;;5.50;1.90;;;23.10;44.00;;;;;;4975094;28;20057;-42
2022/07/29 08:29:06;;;;;;;11.93;2.50;;;23.20;43.30;;;;;;4974775;28;20054;-42
2022/07/29 08:31:34;;;;;;;7.38;2.20;;;23.30;42.30;;;;;;4990558;28;20512;-44
2022/07/29 08:34:02;;;;;;;8.85;2.15;;;23.30;41.90;;;;;;5001476;28;20062;-42
2022/07/29 08:36:29;;;;;;;4.55;1.65;;;23.30;41.80;;;;;;4996732;28;20517;-43
2022/07/29 08:38:56;;;;;;;4.43;1.98;;;23.30;42.00;;;;;;4994347;28;20409;-45
2022/07/29 08:41:24;;;;;;;4.35;1.60;;;23.40;42.60;;;;;;4997460;28;20054;-42
2022/07/29 08:43:51;;;;;;;5.13;1.90;;;23.40;42.70;;;;;;5000197;28;20061;-43
2022/07/29 08:46:19;;;;;;;4.00;1.88;;;23.50;42.20;;;;;;4996209;28;20058;-42
2022/07/29 08:48:48;;;;;;;5.47;2.20;;;23.50;42.50;;;;;;4978465;28;20664;-41
2022/07/29 08:51:17;;;;;;;5.20;1.80;;;23.60;42.30;;;;;;4972628;28;20062;-43
2022/07/29 08:53:48;;;;;;;10.40;1.90;;;23.70;42.30;;;;;;4972542;28;20055;-42
2022/07/29 08:56:16;;;;;;;4.75;1.90;;;23.80;41.70;;;;;;4985960;28;20050;-41
2022/07/29 08:58:44;;;;;;;3.40;1.80;;;23.90;41.20;;;;;;4978616;28;20058;-44
2022/07/29 09:01:14;;;;;;;3.92;1.60;;;23.90;41.80;;;;;;4986252;28;20062;-42
2022/07/29 09:03:43;;;;;;;5.25;2.05;;;24.10;41.70;;;;;;5006094;28;20391;-42
2022/07/29 09:06:14;;;;;;;3.17;1.40;;;24.10;41.90;;;;;;5001186;28;21003;-43
2022/07/29 09:08:42;;;;;;;3.20;1.58;;;24.20;41.80;;;;;;5002347;28;20054;-42
2022/07/29 09:11:10;;;;;;;12.10;2.42;;;24.30;41.40;;;;;;5002414;28;20069;-43
2022/07/29 09:13:37;;;;;;;5.65;1.75;;;24.40;41.20;;;;;;4998196;28;20054;-43
2022/07/29 09:16:05;;;;;;;8.02;1.77;;;24.50;40.50;;;;;;4997686;28;20064;-44
2022/07/29 09:18:36;;;;;;;6.18;1.52;;;24.50;40.00;;;;;;5000774;28;20065;-45
2022/07/29 09:24:06;;;;;;;5.60;2.28;;;24.70;40.20;;;;;;5005638;28;20419;-42
2022/07/29 09:26:35;;;;;;;5.15;1.95;;;24.70;39.00;;;;;;4997518;28;20565;-46
2022/07/29 09:29:09;;;;;;;4.80;2.20;;;24.80;39.00;;;;;;4995558;28;20057;-44
2022/07/29 09:31:38;;;;;;;5.88;2.40;;;24.80;38.70;;;;;;4994007;28;20494;-43
2022/07/29 09:34:07;;;;;;;6.30;2.03;;;24.80;38.90;;;;;;5000135;28;20042;-43
2022/07/29 09:36:40;;;;;;;3.67;2.00;;;24.80;39.40;;;;;;5002621;28;20054;-42
2022/07/29 09:39:09;;;;;;;5.17;2.00;;;24.90;39.30;;;;;;4997836;28;20057;-41
2022/07/29 09:41:47;;;;;;;5.07;1.58;;;25.00;39.40;;;;;;4978619;28;20058;-43
2022/07/29 09:44:14;;;;;;;4.32;2.20;;;25.00;39.70;;;;;;4990754;28;20054;-41
2022/07/29 09:46:52;;;;;;;3.47;1.90;;;25.10;38.70;;;;;;4996438;28;20894;-41
2022/07/29 09:49:20;;;;;;;3.80;1.70;;;25.10;39.10;;;;;;5000330;28;20062;-44
2022/07/29 09:51:47;;;;;;;9.85;1.77;;;25.20;39.40;;;;;;4996682;28;20402;-42
2022/07/29 09:54:26;;;;;;;4.97;1.88;;;25.30;39.50;;;;;;4996084;28;20100;-44
2022/07/29 09:56:54;;;;;;;3.85;1.70;;;25.30;38.60;;;;;;4981977;28;20074;-45
2022/07/29 09:59:24;;;;;;;5.00;1.95;;;25.40;38.80;;;;;;4986144;28;20073;-43
2022/07/29 10:01:51;;;;;;;5.55;1.50;;;25.40;38.90;;;;;;4981214;28;20153;-43
2022/07/29 10:04:19;;;;;;;5.63;1.98;;;25.50;38.90;;;;;;4977933;28;20055;-42
2022/07/29 10:07:00;;;;;;;3.47;1.83;;;25.50;39.00;;;;;;4988040;28;20050;-41
2022/07/29 10:09:29;;;;;;;3.72;1.52;;;25.50;39.00;;;;;;4999657;28;20050;-41
2022/07/29 10:12:10;;;;;;;6.65;2.03;;;25.70;38.70;;;;;;4998017;28;20056;-44
2022/07/29 10:14:39;;;;;;;6.75;2.10;;;25.70;37.70;;;;;;5000835;28;20056;-42
2022/07/29 10:17:07;;;;;;;5.32;1.98;;;25.70;37.80;;;;;;5002133;28;20061;-43
2022/07/29 10:19:35;;;;;;;4.10;1.85;;;25.80;37.70;;;;;;4999802;28;20058;-42
2022/07/29 10:22:05;;;;;;;3.47;1.77;;;25.90;37.90;;;;;;5000147;28;20398;-41
2022/07/29 10:24:35;;;;;;;4.28;1.85;;;26.00;38.30;;;;;;5004290;28;20518;-41
2022/07/29 10:27:03;;;;;;;3.85;2.10;;;26.00;38.40;;;;;;5002359;28;20053;-42
2022/07/29 10:29:31;;;;;;;7.65;2.00;;;26.10;38.50;;;;;;5001811;28;20050;-46
2022/07/29 10:32:15;;;;;;;3.85;1.92;;;26.20;37.40;;;;;;4998773;28;20528;-42
2022/07/29 10:35:16;;;;;;;3.22;1.77;;;26.20;37.70;;;;;;5001546;28;20053;-45
2022/07/29 10:38:01;;;;;;;4.47;2.10;;;26.30;36.90;;;;;;5000378;28;20522;-43
2022/07/29 10:43:32;;;;;;;4.43;2.00;;;26.40;37.80;;;;;;5006195;28;20060;-41
2022/07/29 10:46:01;;;;;;;2.35;1.52;;;26.50;37.00;;;;;;4971645;28;20053;-44
2022/07/29 10:48:28;;;;;;;3.20;1.63;;;26.60;37.50;;;;;;4971078;28;20058;-41
2022/07/29 10:50:58;;;;;;;3.88;1.75;;;26.70;37.80;;;;;;4986512;28;20077;-42
2022/07/29 10:53:46;;;;;;;7.00;1.80;;;26.70;37.80;;;;;;4997796;28;20502;-45
2022/07/29 10:56:26;;;;;;;5.85;1.88;;;26.80;37.70;;;;;;4997296;28;20057;-42
2022/07/29 10:59:25;;;;;;;3.80;1.77;;;26.90;37.60;;;;;;4998990;28;20061;-41
2022/07/29 11:01:54;;;;;;;3.72;1.63;;;27.00;37.50;;;;;;4997446;28;20502;-43
2022/07/29 11:04:59;;;;;;;4.43;2.10;;;27.10;37.70;;;;;;5003148;28;20068;-42
2022/07/29 11:07:26;;;;;;;;;;;27.10;37.00;;;;;;5004282;28;20053;-42
2022/07/29 11:10:21;;;;;;;3.30;1.80;;;27.10;37.10;;;;;;4999058;28;20461;-41
2022/07/29 11:12:50;;;;;;;6.00;2.20;;;27.20;37.30;;;;;;4997397;28;20058;-44
2022/07/29 11:15:21;;;;;;;8.80;2.50;;;27.20;37.10;;;;;;4994879;28;20045;-46
2022/07/29 11:18:08;;;;;;;4.05;2.00;;;27.30;36.20;;;;;;5001346;28;20623;-42
2022/07/29 11:20:38;;;;;;;5.60;2.30;;;27.30;36.00;;;;;;4999654;28;20057;-43
2022/07/29 11:23:23;;;;;;;8.50;2.28;;;27.30;35.50;;;;;;5000381;28;20490;-43
2022/07/29 11:26:15;;;;;;;3.38;1.70;;;27.30;35.40;;;;;;5001377;28;20072;-42
2022/07/29 11:28:52;;;;;;;4.57;1.92;;;27.30;35.90;;;;;;5000688;28;20058;-43
2022/07/29 11:31:33;;;;;;;4.78;2.10;;;27.40;35.60;;;;;;5000350;28;20068;-48
2022/07/29 11:34:19;;;;;;;6.65;2.30;;;27.40;34.70;;;;;;4999486;28;20061;-45
2022/07/29 11:37:17;;;;;;;9.20;2.08;;;27.40;34.70;;;;;;4999868;28;20054;-47
2022/07/29 11:39:46;;;;;;;7.50;2.35;;;27.30;34.60;;;;;;4998559;28;20064;-46
2022/07/29 11:42:42;;;;;;;5.53;2.30;;;27.40;35.00;;;;;;5001898;28;20054;-41
2022/07/29 11:45:13;;;;;;;6.60;2.35;;;27.30;36.10;;;;;;4996568;28;20053;-43
2022/07/29 11:47:42;;;;;;;7.32;2.35;;;27.30;35.40;;;;;;5002940;28;20056;-54
2022/07/29 11:50:11;;;;;;;5.30;2.20;;;27.30;35.20;;;;;;4999563;28;20053;-42
2022/07/29 11:52:44;;;;;;;6.68;2.40;;;27.30;35.30;;;;;;5003339;28;20053;-43
2022/07/29 11:55:15;;;;;;;9.70;2.50;;;27.30;35.50;;;;;;4999950;28;20050;-41
2022/07/29 11:57:52;;;;;;;7.90;2.03;;;27.30;36.70;;;;;;4994629;28;20058;-41
2022/07/29 12:00:30;;;;;;;11.02;2.63;;;27.40;35.60;;;;;;4999227;28;20060;-44
2022/07/29 12:02:58;;;;;;;5.75;1.98;;;27.40;35.30;;;;;;4998198;28;20410;-40
2022/07/29 12:05:33;;;;;;;6.60;2.25;;;27.40;36.00;;;;;;4998879;28;20064;-45
2022/07/29 12:08:08;;;;;;;7.03;2.17;;;27.50;35.50;;;;;;5000462;28;20060;-41
2022/07/29 12:10:36;;;;;;;6.15;2.47;;;27.50;36.10;;;;;;4997945;28;20061;-42
2022/07/29 12:13:03;;;;;;;8.48;2.50;;;27.50;36.10;;;;;;5000868;28;20058;-43
2022/07/29 12:15:32;;;;;;;8.38;2.50;;;27.50;36.10;;;;;;5000879;28;20045;-43
2022/07/29 12:18:09;;;;;;;7.53;2.63;;;27.50;35.70;;;;;;5002597;28;20430;-43
2022/07/29 12:20:37;;;;;;;13.02;2.53;;;27.50;35.50;;;;;;5001975;28;20050;-47
2022/07/29 12:23:06;;;;;;;8.65;2.60;;;27.60;35.70;;;;;;5001787;28;20545;-43
2022/07/29 12:25:35;;;;;;;6.57;2.55;;;27.60;34.70;;;;;;5000681;28;20058;-42
2022/07/29 12:28:04;;;;;;;7.53;2.55;;;27.70;34.90;;;;;;4996193;28;20980;-44
2022/07/29 12:30:41;;;;;;;12.15;2.70;;;27.60;35.10;;;;;;4998075;28;20057;-43
2022/07/29 12:33:17;;;;;;;14.45;2.97;;;27.70;35.60;;;;;;5002120;28;20057;-48
2022/07/29 12:35:47;;;;;;;9.48;2.53;;;27.70;35.10;;;;;;4993921;28;20077;-46
2022/07/29 12:38:14;;;;;;;4.15;2.40;;;27.60;35.30;;;;;;4995253;28;20172;-46
2022/07/29 12:40:42;;;;;;;7.25;2.58;;;27.70;35.50;;;;;;4978104;28;20065;-42
2022/07/29 12:43:13;;;;;;;5.55;2.03;;;27.70;35.90;;;;;;4994757;28;20061;-41
2022/07/29 12:45:44;;;;;;;5.60;2.42;;;27.70;36.50;;;;;;5001631;28;20517;-42
2022/07/29 12:48:12;;;;;;;13.07;2.58;;;27.80;36.10;;;;;;5000667;28;20061;-45
2022/07/29 12:50:54;;;;;;;9.35;2.70;;;27.80;35.40;;;;;;4984667;28;20050;-44
2022/07/29 12:53:21;;;;;;;6.65;2.15;;;27.80;35.90;;;;;;4978353;28;20050;-42
2022/07/29 12:55:52;;;;;;;12.05;2.72;;;27.80;36.30;;;;;;4982134;28;20053;-42
2022/07/29 12:58:34;;;;;;;7.68;2.35;;;27.80;37.10;;;;;;4975100;28;20058;-48
2022/07/29 13:01:08;;;;;;;6.43;2.65;;;27.80;36.20;;;;;;4976333;28;20054;-44
2022/07/29 13:03:52;;;;;;;6.53;2.47;;;27.80;36.90;;;;;;4975927;28;20058;-46
2022/07/29 13:06:34;;;;;;;6.43;2.95;;;27.80;35.50;;;;;;4977761;28;20058;-46
2022/07/29 13:09:10;;;;;;;8.55;2.83;;;27.80;36.50;;;;;;4975849;28;20495;-45
2022/07/29 13:11:40;;;;;;;9.23;2.40;;;27.80;35.20;;;;;;4979629;28;20077;-44
2022/07/29 13:14:09;;;;;;;7.60;2.75;;;27.80;35.40;;;;;;4985119;28;20433;-45
2022/07/29 13:16:58;;;;;;;7.68;2.90;;;27.80;35.80;;;;;;4983719;28;20058;-45
2022/07/29 13:19:35;;;;;;;8.00;2.42;;;27.70;36.10;;;;;;4983612;28;20046;-43
2022/07/29 13:22:02;;;;;;;10.10;2.42;;;27.70;35.30;;;;;;4982697;28;20429;-43
2022/07/29 13:24:30;;;;;;;9.80;2.72;;;27.70;35.40;;;;;;4982221;28;20540;-42